Scarborough, ME

6:05 AM EST on November 28, 2014 (GMT -0500)
Sanford Regional | Change Station
CLOSE
Current Station
Airport
Location: Sanford,
Elevation: 243 ft
Nearby Weather Stations

Elev 243 ft 43.39 °N, 70.71 °W | Updated 10 minutes ago

Snow
Snow
25 °F
Feels Like 16 °F
N
8
Wind Variable Wind from North

Today
High -- | Low -- °F
--% Chance of Precip.
Yesterday
High -- | Low -- °F
Precip. -- in
6:51 AM 4:07 PM
Waxing Crescent, 39% visible
Pressure 30.03 in
Visibility 5.0 miles
Clouds Overcast 2200 ft
Windchill 16 °F
Dew Point 14 °F
Humidity 64%
Rainfall 0.00 in
Snow Depth Not available.
UV 0 out of 12
Pollen .10 out of 12
Air Quality Not available.
Flu Activity Not available.
METAR KSFM 281055Z AUTO 36007KT 5SM OVC022 M04/M10 A3003 RMK AO1

More Conditions Fewer Conditions

Pressure 30.03 in
Visibility 5.0 miles
Clouds Overcast 2200 ft
Windchill 16 °F
Dew Point 14 °F
Humidity 64%
Rainfall 0.00 in
Snow Depth Not available.
UV 0 out of 12
Pollen .10 out of 12
Air Quality Not available.
Flu Activity Not available.
METAR KSFM 281055Z AUTO 36007KT 5SM OVC022 M04/M10 A3003 RMK AO1

More Conditions Fewer Conditions

10-Day Weather Forecast

Almanac

Astronomy

Nov. 28, 2014 Rise Set
Actual Time
Civil Twilight
Nautical Twilight
Astronomical Twilight
Moon
Length of Visible Light
Length of Day
Tomorrow will be .
, % of the Moon is Illuminated

Today's Extremes

State Highs State Lows

Community

WunderPhotos

Upload Photos

1,774,192 photos uploaded!

WunderBlogs® & News

Nearby

Air Quality

  Air Quality AQ Index Pollutant
Not available.

Snow Depth

Station Depth Elevation

Earthquake Activity

City Distance Mag. Time & Date
Minimum magnitude displayed is 2.5.

Coastal Water Temperatures

Place Temperature

Nearby Weather Stations